sensor_id;sensor_type;location;lat;lon;timestamp;pressure;altitude;pressure_sealevel;temperature;humidity
10539;BME280;5317;49.048;8.468;2022-07-06T00:00:15;112049.66;;;-142.21;54.32
10539;BME280;5317;49.048;8.468;2022-07-06T00:02:42;112049.66;;;-142.21;54.05
10539;BME280;5317;49.048;8.468;2022-07-06T00:05:10;112049.66;;;-142.21;54.20
10539;BME280;5317;49.048;8.468;2022-07-06T00:07:37;112049.66;;;-142.21;55.79
10539;BME280;5317;49.048;8.468;2022-07-06T00:10:07;112049.66;;;-142.21;56.92
10539;BME280;5317;49.048;8.468;2022-07-06T00:12:36;112049.66;;;-142.21;59.45
10539;BME280;5317;49.048;8.468;2022-07-06T00:15:04;112049.66;;;-142.21;59.09
10539;BME280;5317;49.048;8.468;2022-07-06T00:17:31;112049.66;;;-142.21;59.47
10539;BME280;5317;49.048;8.468;2022-07-06T00:19:59;112049.66;;;-142.21;60.41
10539;BME280;5317;49.048;8.468;2022-07-06T00:22:26;112049.66;;;-142.21;61.55
10539;BME280;5317;49.048;8.468;2022-07-06T00:24:53;112049.66;;;-142.21;62.90
10539;BME280;5317;49.048;8.468;2022-07-06T00:27:23;112049.66;;;-142.21;63.97
10539;BME280;5317;49.048;8.468;2022-07-06T00:29:52;112049.66;;;-142.21;65.20
10539;BME280;5317;49.048;8.468;2022-07-06T00:32:19;112049.66;;;-142.21;64.76
10539;BME280;5317;49.048;8.468;2022-07-06T00:34:46;112049.66;;;-142.21;64.92
10539;BME280;5317;49.048;8.468;2022-07-06T00:37:14;112049.66;;;-142.21;65.77
10539;BME280;5317;49.048;8.468;2022-07-06T00:39:41;112049.66;;;-142.21;66.17
10539;BME280;5317;49.048;8.468;2022-07-06T00:42:09;112049.66;;;-142.21;66.46
10539;BME280;5317;49.048;8.468;2022-07-06T00:44:36;112049.66;;;-142.21;65.85
10539;BME280;5317;49.048;8.468;2022-07-06T00:47:04;112049.66;;;-142.21;66.41
10539;BME280;5317;49.048;8.468;2022-07-06T00:49:33;112049.66;;;-142.21;65.57
10539;BME280;5317;49.048;8.468;2022-07-06T00:52:19;112049.66;;;-142.21;65.93
10539;BME280;5317;49.048;8.468;2022-07-06T00:54:47;112049.66;;;-142.21;66.77
10539;BME280;5317;49.048;8.468;2022-07-06T00:57:15;112049.66;;;-142.21;67.39
10539;BME280;5317;49.048;8.468;2022-07-06T00:59:43;112049.66;;;-142.21;68.07
10539;BME280;5317;49.048;8.468;2022-07-06T01:02:12;112049.66;;;-142.21;67.76
10539;BME280;5317;49.048;8.468;2022-07-06T01:04:39;112049.66;;;-142.21;67.38
10539;BME280;5317;49.048;8.468;2022-07-06T01:07:06;112049.66;;;-142.21;67.37
10539;BME280;5317;49.048;8.468;2022-07-06T01:09:33;112049.66;;;-142.21;67.63
10539;BME280;5317;49.048;8.468;2022-07-06T01:12:00;112049.66;;;-142.21;68.25
10539;BME280;5317;49.048;8.468;2022-07-06T01:14:28;112049.66;;;-142.21;68.15
10539;BME280;5317;49.048;8.468;2022-07-06T01:16:55;112049.66;;;-142.21;68.39
10539;BME280;5317;49.048;8.468;2022-07-06T01:19:24;112049.66;;;-142.21;69.44
10539;BME280;5317;49.048;8.468;2022-07-06T01:21:53;112049.66;;;-142.21;69.49
10539;BME280;5317;49.048;8.468;2022-07-06T01:24:21;112049.66;;;-142.21;69.39
10539;BME280;5317;49.048;8.468;2022-07-06T01:26:48;112049.66;;;-142.21;70.39
10539;BME280;5317;49.048;8.468;2022-07-06T01:29:15;112049.66;;;-142.21;70.47
10539;BME280;5317;49.048;8.468;2022-07-06T01:31:47;112049.66;;;-142.21;71.08
10539;BME280;5317;49.048;8.468;2022-07-06T01:34:16;112049.66;;;-142.21;70.65
10539;BME280;5317;49.048;8.468;2022-07-06T01:36:44;112049.66;;;-142.21;70.83
10539;BME280;5317;49.048;8.468;2022-07-06T01:39:16;112049.66;;;-142.21;69.41
10539;BME280;5317;49.048;8.468;2022-07-06T01:41:43;112049.66;;;-142.21;70.91
10539;BME280;5317;49.048;8.468;2022-07-06T01:44:11;112049.66;;;-142.21;70.41
10539;BME280;5317;49.048;8.468;2022-07-06T01:46:39;112049.66;;;-142.21;71.01
10539;BME280;5317;49.048;8.468;2022-07-06T01:49:06;112049.66;;;-142.21;70.94
10539;BME280;5317;49.048;8.468;2022-07-06T01:51:33;112049.66;;;-142.21;70.67
10539;BME280;5317;49.048;8.468;2022-07-06T01:54:01;112049.66;;;-142.21;71.41
10539;BME280;5317;49.048;8.468;2022-07-06T01:56:29;112049.66;;;-142.21;71.05
10539;BME280;5317;49.048;8.468;2022-07-06T01:58:56;112049.66;;;-142.21;70.38
10539;BME280;5317;49.048;8.468;2022-07-06T02:01:24;112049.66;;;-142.21;70.08
10539;BME280;5317;49.048;8.468;2022-07-06T02:03:51;112049.66;;;-142.21;70.12
10539;BME280;5317;49.048;8.468;2022-07-06T02:06:18;112049.66;;;-142.21;70.50
10539;BME280;5317;49.048;8.468;2022-07-06T02:08:46;112049.66;;;-142.21;70.57
10539;BME280;5317;49.048;8.468;2022-07-06T02:11:13;112049.66;;;-142.21;70.35
10539;BME280;5317;49.048;8.468;2022-07-06T02:13:42;112049.66;;;-142.21;70.63
10539;BME280;5317;49.048;8.468;2022-07-06T02:16:10;112049.66;;;-142.21;70.80
10539;BME280;5317;49.048;8.468;2022-07-06T02:18:37;112049.66;;;-142.21;70.52
10539;BME280;5317;49.048;8.468;2022-07-06T02:21:05;112049.66;;;-142.21;70.33
10539;BME280;5317;49.048;8.468;2022-07-06T02:23:32;112049.66;;;-142.21;71.32
10539;BME280;5317;49.048;8.468;2022-07-06T02:25:59;112049.66;;;-142.21;70.78
10539;BME280;5317;49.048;8.468;2022-07-06T02:28:27;112049.66;;;-142.21;72.00
10539;BME280;5317;49.048;8.468;2022-07-06T02:30:55;112049.66;;;-142.21;72.33
10539;BME280;5317;49.048;8.468;2022-07-06T02:33:22;112049.66;;;-142.21;72.64
10539;BME280;5317;49.048;8.468;2022-07-06T02:35:50;112049.66;;;-142.21;73.10
10539;BME280;5317;49.048;8.468;2022-07-06T02:38:17;112049.66;;;-142.21;73.17
10539;BME280;5317;49.048;8.468;2022-07-06T02:40:44;112049.66;;;-142.21;73.84
10539;BME280;5317;49.048;8.468;2022-07-06T02:43:11;112049.66;;;-142.21;74.52
10539;BME280;5317;49.048;8.468;2022-07-06T02:45:39;112049.66;;;-142.21;75.38
10539;BME280;5317;49.048;8.468;2022-07-06T02:48:08;112049.66;;;-142.21;75.91
10539;BME280;5317;49.048;8.468;2022-07-06T02:50:35;112049.66;;;-142.21;76.09
10539;BME280;5317;49.048;8.468;2022-07-06T02:53:02;112049.66;;;-142.21;76.56
10539;BME280;5317;49.048;8.468;2022-07-06T02:55:29;112049.66;;;-142.21;76.67
10539;BME280;5317;49.048;8.468;2022-07-06T02:57:56;112049.66;;;-142.21;76.80
10539;BME280;5317;49.048;8.468;2022-07-06T03:00:24;112049.66;;;-142.21;76.92
10539;BME280;5317;49.048;8.468;2022-07-06T03:02:51;112049.66;;;-142.21;77.77
10539;BME280;5317;49.048;8.468;2022-07-06T03:05:20;112049.66;;;-142.21;78.44
10539;BME280;5317;49.048;8.468;2022-07-06T03:07:47;112049.66;;;-142.21;79.14
10539;BME280;5317;49.048;8.468;2022-07-06T03:10:14;112049.66;;;-142.21;79.81
10539;BME280;5317;49.048;8.468;2022-07-06T03:12:41;112049.66;;;-142.21;80.14
10539;BME280;5317;49.048;8.468;2022-07-06T03:15:09;112049.66;;;-142.21;80.68
10539;BME280;5317;49.048;8.468;2022-07-06T03:17:38;112049.66;;;-142.21;80.95
10539;BME280;5317;49.048;8.468;2022-07-06T03:20:07;112049.66;;;-142.21;81.53
10539;BME280;5317;49.048;8.468;2022-07-06T03:22:35;112049.66;;;-142.21;81.70
10539;BME280;5317;49.048;8.468;2022-07-06T03:25:03;112049.66;;;-142.21;82.40
10539;BME280;5317;49.048;8.468;2022-07-06T03:27:31;112049.66;;;-142.21;82.19
10539;BME280;5317;49.048;8.468;2022-07-06T03:29:59;112049.66;;;-142.21;82.49
10539;BME280;5317;49.048;8.468;2022-07-06T03:32:26;112049.66;;;-142.21;82.31
10539;BME280;5317;49.048;8.468;2022-07-06T03:34:55;112049.66;;;-142.21;82.43
10539;BME280;5317;49.048;8.468;2022-07-06T03:37:22;112049.66;;;-142.21;82.50
10539;BME280;5317;49.048;8.468;2022-07-06T03:39:50;112049.66;;;-142.21;82.28
10539;BME280;5317;49.048;8.468;2022-07-06T03:42:17;112049.66;;;-142.21;82.83
10539;BME280;5317;49.048;8.468;2022-07-06T03:44:45;112049.66;;;-142.21;83.04
10539;BME280;5317;49.048;8.468;2022-07-06T03:47:12;112049.66;;;-142.21;83.34
10539;BME280;5317;49.048;8.468;2022-07-06T03:49:39;112049.66;;;-142.21;83.29
10539;BME280;5317;49.048;8.468;2022-07-06T03:52:06;112049.66;;;-142.21;84.26
10539;BME280;5317;49.048;8.468;2022-07-06T03:54:33;112049.66;;;-142.21;83.97
10539;BME280;5317;49.048;8.468;2022-07-06T03:57:02;112049.66;;;-142.21;84.00
10539;BME280;5317;49.048;8.468;2022-07-06T03:59:29;112049.66;;;-142.21;84.16
10539;BME280;5317;49.048;8.468;2022-07-06T04:01:57;112049.66;;;-142.21;84.30
10539;BME280;5317;49.048;8.468;2022-07-06T04:04:26;112049.66;;;-142.21;84.32
10539;BME280;5317;49.048;8.468;2022-07-06T04:06:53;112049.66;;;-142.21;84.50
10539;BME280;5317;49.048;8.468;2022-07-06T04:09:20;112049.66;;;-142.21;84.50
10539;BME280;5317;49.048;8.468;2022-07-06T04:14:16;112049.66;;;-142.21;82.90
10539;BME280;5317;49.048;8.468;2022-07-06T04:16:43;112049.66;;;-142.21;82.38
10539;BME280;5317;49.048;8.468;2022-07-06T04:19:10;112049.66;;;-142.21;81.80
10539;BME280;5317;49.048;8.468;2022-07-06T04:21:40;112049.66;;;-142.21;83.25
10539;BME280;5317;49.048;8.468;2022-07-06T04:24:07;112049.66;;;-142.21;84.94
10539;BME280;5317;49.048;8.468;2022-07-06T04:26:34;112049.66;;;-142.21;85.23
10539;BME280;5317;49.048;8.468;2022-07-06T04:29:02;112049.66;;;-142.21;84.72
10539;BME280;5317;49.048;8.468;2022-07-06T04:31:31;112049.66;;;-142.21;84.00
10539;BME280;5317;49.048;8.468;2022-07-06T04:33:58;112049.66;;;-142.21;83.27
10539;BME280;5317;49.048;8.468;2022-07-06T04:36:25;112049.66;;;-142.21;82.85
10539;BME280;5317;49.048;8.468;2022-07-06T04:38:52;112049.66;;;-142.21;80.35
10539;BME280;5317;49.048;8.468;2022-07-06T04:41:19;112049.66;;;-142.21;80.93
10539;BME280;5317;49.048;8.468;2022-07-06T04:43:46;112049.66;;;-142.21;84.50
10539;BME280;5317;49.048;8.468;2022-07-06T04:46:14;112049.66;;;-142.21;83.53
10539;BME280;5317;49.048;8.468;2022-07-06T04:48:42;112049.66;;;-142.21;82.36
10539;BME280;5317;49.048;8.468;2022-07-06T04:51:09;112049.66;;;-142.21;84.31
10539;BME280;5317;49.048;8.468;2022-07-06T04:53:36;112049.66;;;-142.21;82.75
10539;BME280;5317;49.048;8.468;2022-07-06T04:56:04;112049.66;;;-142.21;82.58
10539;BME280;5317;49.048;8.468;2022-07-06T04:58:31;112049.66;;;-142.21;82.71
10539;BME280;5317;49.048;8.468;2022-07-06T05:00:59;112049.66;;;-142.21;81.78
10539;BME280;5317;49.048;8.468;2022-07-06T05:03:26;112049.66;;;-142.21;81.08
10539;BME280;5317;49.048;8.468;2022-07-06T05:05:55;112049.66;;;-142.21;80.17
10539;BME280;5317;49.048;8.468;2022-07-06T05:08:22;112049.66;;;-142.21;79.77
10539;BME280;5317;49.048;8.468;2022-07-06T05:10:49;112049.66;;;-142.21;80.80
10539;BME280;5317;49.048;8.468;2022-07-06T05:13:17;112049.66;;;-142.21;80.10
10539;BME280;5317;49.048;8.468;2022-07-06T05:15:45;112049.66;;;-142.21;80.18
10539;BME280;5317;49.048;8.468;2022-07-06T05:18:12;112049.66;;;-142.21;79.98
10539;BME280;5317;49.048;8.468;2022-07-06T05:20:39;112049.66;;;-142.21;79.91
10539;BME280;5317;49.048;8.468;2022-07-06T05:23:08;112049.66;;;-142.21;78.79
10539;BME280;5317;49.048;8.468;2022-07-06T05:25:35;112049.66;;;-142.21;78.52
10539;BME280;5317;49.048;8.468;2022-07-06T05:28:03;112049.66;;;-142.21;77.77
10539;BME280;5317;49.048;8.468;2022-07-06T05:30:30;112049.66;;;-142.21;76.90
10539;BME280;5317;49.048;8.468;2022-07-06T05:32:59;112049.66;;;-142.21;75.69
10539;BME280;5317;49.048;8.468;2022-07-06T05:35:26;112049.66;;;-142.21;74.71
10539;BME280;5317;49.048;8.468;2022-07-06T05:37:53;112049.66;;;-142.21;74.59
10539;BME280;5317;49.048;8.468;2022-07-06T05:40:22;112049.66;;;-142.21;74.39
10539;BME280;5317;49.048;8.468;2022-07-06T05:42:49;112049.66;;;-142.21;72.56
10539;BME280;5317;49.048;8.468;2022-07-06T05:45:23;112049.66;;;-142.21;73.29
10539;BME280;5317;49.048;8.468;2022-07-06T05:47:50;112049.66;;;-142.21;72.58
10539;BME280;5317;49.048;8.468;2022-07-06T05:50:34;112049.66;;;-142.21;72.98
10539;BME280;5317;49.048;8.468;2022-07-06T05:53:05;112049.66;;;-142.21;72.53
10539;BME280;5317;49.048;8.468;2022-07-06T05:55:34;112049.66;;;-142.21;72.84
10539;BME280;5317;49.048;8.468;2022-07-06T05:58:02;112049.66;;;-142.21;73.24
10539;BME280;5317;49.048;8.468;2022-07-06T06:00:30;112049.66;;;-142.21;73.01
10539;BME280;5317;49.048;8.468;2022-07-06T06:02:58;112049.66;;;-142.21;72.77
10539;BME280;5317;49.048;8.468;2022-07-06T06:05:26;112049.66;;;-142.21;71.03
10539;BME280;5317;49.048;8.468;2022-07-06T06:07:53;112049.66;;;-142.21;71.43
10539;BME280;5317;49.048;8.468;2022-07-06T06:10:21;112049.66;;;-142.21;71.08
10539;BME280;5317;49.048;8.468;2022-07-06T06:12:50;112049.66;;;-142.21;69.74
10539;BME280;5317;49.048;8.468;2022-07-06T06:15:19;112049.66;;;-142.21;69.57
10539;BME280;5317;49.048;8.468;2022-07-06T06:17:47;112049.66;;;-142.21;68.64
10539;BME280;5317;49.048;8.468;2022-07-06T06:20:14;112049.66;;;-142.21;68.91
10539;BME280;5317;49.048;8.468;2022-07-06T06:22:46;112049.66;;;-142.21;69.50
10539;BME280;5317;49.048;8.468;2022-07-06T06:25:14;112049.66;;;-142.21;68.50
10539;BME280;5317;49.048;8.468;2022-07-06T06:27:42;112049.66;;;-142.21;66.79
10539;BME280;5317;49.048;8.468;2022-07-06T06:30:12;112049.66;;;-142.21;65.86
10539;BME280;5317;49.048;8.468;2022-07-06T06:32:40;112049.66;;;-142.21;68.48
10539;BME280;5317;49.048;8.468;2022-07-06T06:35:08;112049.66;;;-142.21;67.47
10539;BME280;5317;49.048;8.468;2022-07-06T06:37:35;112049.66;;;-142.21;65.58
10539;BME280;5317;49.048;8.468;2022-07-06T06:40:05;112049.66;;;-142.21;66.37
10539;BME280;5317;49.048;8.468;2022-07-06T06:42:35;112049.66;;;-142.21;66.16
10539;BME280;5317;49.048;8.468;2022-07-06T06:45:03;112049.66;;;-142.21;66.04
10539;BME280;5317;49.048;8.468;2022-07-06T06:47:32;112049.66;;;-142.21;65.82
10539;BME280;5317;49.048;8.468;2022-07-06T06:49:59;112049.66;;;-142.21;65.17
10539;BME280;5317;49.048;8.468;2022-07-06T06:52:27;112049.66;;;-142.21;64.58
10539;BME280;5317;49.048;8.468;2022-07-06T06:54:54;112049.66;;;-142.21;64.11
10539;BME280;5317;49.048;8.468;2022-07-06T06:57:21;112049.66;;;-142.21;65.10
10539;BME280;5317;49.048;8.468;2022-07-06T06:59:48;112049.66;;;-142.21;64.39
10539;BME280;5317;49.048;8.468;2022-07-06T07:02:15;112049.66;;;-142.21;64.57
10539;BME280;5317;49.048;8.468;2022-07-06T07:04:45;112049.66;;;-142.21;63.45
10539;BME280;5317;49.048;8.468;2022-07-06T07:07:12;112049.66;;;-142.21;64.09
10539;BME280;5317;49.048;8.468;2022-07-06T07:09:39;112049.66;;;-142.21;64.43
10539;BME280;5317;49.048;8.468;2022-07-06T07:12:07;112049.66;;;-142.21;64.72
10539;BME280;5317;49.048;8.468;2022-07-06T07:14:36;112049.66;;;-142.21;63.80
10539;BME280;5317;49.048;8.468;2022-07-06T07:17:03;112049.66;;;-142.21;64.11
10539;BME280;5317;49.048;8.468;2022-07-06T07:19:30;112049.66;;;-142.21;63.44
10539;BME280;5317;49.048;8.468;2022-07-06T07:21:59;112049.66;;;-142.21;61.48
10539;BME280;5317;49.048;8.468;2022-07-06T07:24:26;112049.66;;;-142.21;61.62
10539;BME280;5317;49.048;8.468;2022-07-06T07:26:54;112049.66;;;-142.21;61.53
10539;BME280;5317;49.048;8.468;2022-07-06T07:29:21;112049.66;;;-142.21;61.53
10539;BME280;5317;49.048;8.468;2022-07-06T07:31:49;112049.66;;;-142.21;61.57
10539;BME280;5317;49.048;8.468;2022-07-06T07:34:16;112049.66;;;-142.21;60.93
10539;BME280;5317;49.048;8.468;2022-07-06T07:36:43;112049.66;;;-142.21;59.48
10539;BME280;5317;49.048;8.468;2022-07-06T07:39:14;112049.66;;;-142.21;58.88
10539;BME280;5317;49.048;8.468;2022-07-06T07:41:42;112049.66;;;-142.21;59.71
10539;BME280;5317;49.048;8.468;2022-07-06T07:44:09;112049.66;;;-142.21;58.97
10539;BME280;5317;49.048;8.468;2022-07-06T07:46:37;112049.66;;;-142.21;59.36
10539;BME280;5317;49.048;8.468;2022-07-06T07:49:04;112049.66;;;-142.21;58.21
10539;BME280;5317;49.048;8.468;2022-07-06T07:51:31;112049.66;;;-142.21;57.75
10539;BME280;5317;49.048;8.468;2022-07-06T07:53:59;112049.66;;;-142.21;57.02
10539;BME280;5317;49.048;8.468;2022-07-06T07:56:28;112049.66;;;-142.21;58.61
10539;BME280;5317;49.048;8.468;2022-07-06T07:58:55;112049.66;;;-142.21;57.97
10539;BME280;5317;49.048;8.468;2022-07-06T08:01:22;112049.66;;;-142.21;56.33
10539;BME280;5317;49.048;8.468;2022-07-06T08:03:49;112049.66;;;-142.21;56.38
10539;BME280;5317;49.048;8.468;2022-07-06T08:06:17;112049.66;;;-142.21;55.55
10539;BME280;5317;49.048;8.468;2022-07-06T08:08:44;112049.66;;;-142.21;56.10
10539;BME280;5317;49.048;8.468;2022-07-06T08:11:11;112049.66;;;-142.21;56.57
10539;BME280;5317;49.048;8.468;2022-07-06T08:13:40;112049.66;;;-142.21;55.75
10539;BME280;5317;49.048;8.468;2022-07-06T08:16:07;112049.66;;;-142.21;54.53
10539;BME280;5317;49.048;8.468;2022-07-06T08:18:35;112049.66;;;-142.21;54.32
10539;BME280;5317;49.048;8.468;2022-07-06T08:21:03;112049.66;;;-142.21;54.03
10539;BME280;5317;49.048;8.468;2022-07-06T08:23:31;112049.66;;;-142.21;55.29
10539;BME280;5317;49.048;8.468;2022-07-06T08:26:00;112049.66;;;-142.21;53.45
10539;BME280;5317;49.048;8.468;2022-07-06T08:28:27;112049.66;;;-142.21;54.72
10539;BME280;5317;49.048;8.468;2022-07-06T08:30:57;112049.66;;;-142.21;55.13
10539;BME280;5317;49.048;8.468;2022-07-06T08:33:24;112049.66;;;-142.21;53.43
10539;BME280;5317;49.048;8.468;2022-07-06T08:35:52;112049.66;;;-142.21;52.26
10539;BME280;5317;49.048;8.468;2022-07-06T08:38:19;112049.66;;;-142.21;54.86
10539;BME280;5317;49.048;8.468;2022-07-06T08:40:49;112049.66;;;-142.21;54.31
10539;BME280;5317;49.048;8.468;2022-07-06T08:43:17;112049.66;;;-142.21;53.19
10539;BME280;5317;49.048;8.468;2022-07-06T08:45:46;112049.66;;;-142.21;51.75
10539;BME280;5317;49.048;8.468;2022-07-06T08:48:19;112049.66;;;-142.21;52.17
10539;BME280;5317;49.048;8.468;2022-07-06T08:50:50;112049.66;;;-142.21;51.13
10539;BME280;5317;49.048;8.468;2022-07-06T08:53:18;112049.66;;;-142.21;51.52
10539;BME280;5317;49.048;8.468;2022-07-06T08:55:48;112049.66;;;-142.21;52.43
10539;BME280;5317;49.048;8.468;2022-07-06T08:58:16;112049.66;;;-142.21;51.86
10539;BME280;5317;49.048;8.468;2022-07-06T09:00:44;112049.66;;;-142.21;50.69
10539;BME280;5317;49.048;8.468;2022-07-06T09:03:12;112049.66;;;-142.21;50.60
10539;BME280;5317;49.048;8.468;2022-07-06T09:05:45;112049.66;;;-142.21;51.18
10539;BME280;5317;49.048;8.468;2022-07-06T09:08:13;112049.66;;;-142.21;51.71
10539;BME280;5317;49.048;8.468;2022-07-06T09:10:40;112049.66;;;-142.21;47.02
10539;BME280;5317;49.048;8.468;2022-07-06T09:13:09;112049.66;;;-142.21;48.33
10539;BME280;5317;49.048;8.468;2022-07-06T09:15:37;112049.66;;;-142.21;47.29
10539;BME280;5317;49.048;8.468;2022-07-06T09:18:06;112049.66;;;-142.21;47.69
10539;BME280;5317;49.048;8.468;2022-07-06T09:20:34;112049.66;;;-142.21;46.07
10539;BME280;5317;49.048;8.468;2022-07-06T09:23:04;112049.66;;;-142.21;45.50
10539;BME280;5317;49.048;8.468;2022-07-06T09:25:33;112049.66;;;-142.21;47.68
10539;BME280;5317;49.048;8.468;2022-07-06T09:28:02;112049.66;;;-142.21;48.72
10539;BME280;5317;49.048;8.468;2022-07-06T09:30:31;112049.66;;;-142.21;47.37
10539;BME280;5317;49.048;8.468;2022-07-06T09:33:08;112049.66;;;-142.21;46.43
10539;BME280;5317;49.048;8.468;2022-07-06T09:35:38;112049.66;;;-142.21;45.41
10539;BME280;5317;49.048;8.468;2022-07-06T09:38:09;112049.66;;;-142.21;45.58
10539;BME280;5317;49.048;8.468;2022-07-06T09:40:39;112049.66;;;-142.21;45.95
10539;BME280;5317;49.048;8.468;2022-07-06T09:43:13;112049.66;;;-142.21;45.71
10539;BME280;5317;49.048;8.468;2022-07-06T09:45:42;112049.66;;;-142.21;44.98
10539;BME280;5317;49.048;8.468;2022-07-06T09:48:12;112049.66;;;-142.21;44.32
10539;BME280;5317;49.048;8.468;2022-07-06T09:50:46;112049.66;;;-142.21;44.63
10539;BME280;5317;49.048;8.468;2022-07-06T09:53:18;112049.66;;;-142.21;43.93
10539;BME280;5317;49.048;8.468;2022-07-06T09:55:50;112049.66;;;-142.21;43.58
10539;BME280;5317;49.048;8.468;2022-07-06T09:58:19;112049.66;;;-142.21;43.64
10539;BME280;5317;49.048;8.468;2022-07-06T10:00:48;112049.66;;;-142.21;42.92
10539;BME280;5317;49.048;8.468;2022-07-06T10:03:17;112049.66;;;-142.21;43.89
10539;BME280;5317;49.048;8.468;2022-07-06T10:05:47;112049.66;;;-142.21;41.92
10539;BME280;5317;49.048;8.468;2022-07-06T10:08:19;112049.66;;;-142.21;42.42
10539;BME280;5317;49.048;8.468;2022-07-06T10:10:47;112049.66;;;-142.21;42.24
10539;BME280;5317;49.048;8.468;2022-07-06T10:13:21;112049.66;;;-142.21;42.19
10539;BME280;5317;49.048;8.468;2022-07-06T10:15:52;112049.66;;;-142.21;40.75
10539;BME280;5317;49.048;8.468;2022-07-06T10:18:20;112049.66;;;-142.21;40.69
10539;BME280;5317;49.048;8.468;2022-07-06T10:20:50;112049.66;;;-142.21;41.94
10539;BME280;5317;49.048;8.468;2022-07-06T10:23:21;112049.66;;;-142.21;42.53
10539;BME280;5317;49.048;8.468;2022-07-06T10:25:51;112049.66;;;-142.21;43.01
10539;BME280;5317;49.048;8.468;2022-07-06T10:28:41;112049.66;;;-142.21;43.17
10539;BME280;5317;49.048;8.468;2022-07-06T10:31:10;112049.66;;;-142.21;42.62
10539;BME280;5317;49.048;8.468;2022-07-06T10:33:40;112049.66;;;-142.21;40.35
10539;BME280;5317;49.048;8.468;2022-07-06T10:36:08;112049.66;;;-142.21;40.99
10539;BME280;5317;49.048;8.468;2022-07-06T10:38:38;112049.66;;;-142.21;39.87
10539;BME280;5317;49.048;8.468;2022-07-06T10:41:08;112049.66;;;-142.21;40.27
10539;BME280;5317;49.048;8.468;2022-07-06T10:43:36;112049.66;;;-142.21;41.33
10539;BME280;5317;49.048;8.468;2022-07-06T10:46:08;112049.66;;;-142.21;41.98
10539;BME280;5317;49.048;8.468;2022-07-06T10:48:37;112049.66;;;-142.21;41.48
10539;BME280;5317;49.048;8.468;2022-07-06T10:51:05;112049.66;;;-142.21;42.45
10539;BME280;5317;49.048;8.468;2022-07-06T10:53:41;112049.66;;;-142.21;41.64
10539;BME280;5317;49.048;8.468;2022-07-06T10:56:11;112049.66;;;-142.21;41.03
10539;BME280;5317;49.048;8.468;2022-07-06T10:58:45;112049.66;;;-142.21;40.37
10539;BME280;5317;49.048;8.468;2022-07-06T11:01:15;112049.66;;;-142.21;40.53
10539;BME280;5317;49.048;8.468;2022-07-06T11:03:44;112049.66;;;-142.21;41.08
10539;BME280;5317;49.048;8.468;2022-07-06T11:06:15;112049.66;;;-142.21;42.23
10539;BME280;5317;49.048;8.468;2022-07-06T11:08:55;112049.66;;;-142.21;39.71
10539;BME280;5317;49.048;8.468;2022-07-06T11:11:26;112049.66;;;-142.21;38.77
10539;BME280;5317;49.048;8.468;2022-07-06T11:14:07;112049.66;;;-142.21;38.66
10539;BME280;5317;49.048;8.468;2022-07-06T11:16:37;112049.66;;;-142.21;39.14
10539;BME280;5317;49.048;8.468;2022-07-06T11:19:10;112049.66;;;-142.21;39.00
10539;BME280;5317;49.048;8.468;2022-07-06T11:21:50;112049.66;;;-142.21;40.55
10539;BME280;5317;49.048;8.468;2022-07-06T11:24:22;112049.66;;;-142.21;39.30
10539;BME280;5317;49.048;8.468;2022-07-06T11:26:52;112049.66;;;-142.21;41.03
10539;BME280;5317;49.048;8.468;2022-07-06T11:29:22;112049.66;;;-142.21;41.58
10539;BME280;5317;49.048;8.468;2022-07-06T11:31:53;112049.66;;;-142.21;40.82
10539;BME280;5317;49.048;8.468;2022-07-06T11:34:24;112049.66;;;-142.21;40.55
10539;BME280;5317;49.048;8.468;2022-07-06T11:36:55;112049.66;;;-142.21;40.65
10539;BME280;5317;49.048;8.468;2022-07-06T11:39:26;112049.66;;;-142.21;39.98
10539;BME280;5317;49.048;8.468;2022-07-06T11:41:55;112049.66;;;-142.21;39.75
10539;BME280;5317;49.048;8.468;2022-07-06T11:44:22;112049.66;;;-142.21;39.00
10539;BME280;5317;49.048;8.468;2022-07-06T11:46:50;112049.66;;;-142.21;37.29
10539;BME280;5317;49.048;8.468;2022-07-06T11:49:18;112049.66;;;-142.21;38.41
10539;BME280;5317;49.048;8.468;2022-07-06T11:51:46;112049.66;;;-142.21;37.86
10539;BME280;5317;49.048;8.468;2022-07-06T11:54:16;112049.66;;;-142.21;37.82
10539;BME280;5317;49.048;8.468;2022-07-06T11:56:51;112049.66;;;-142.21;40.41
10539;BME280;5317;49.048;8.468;2022-07-06T11:59:22;112049.66;;;-142.21;40.47
10539;BME280;5317;49.048;8.468;2022-07-06T12:01:57;112049.66;;;-142.21;38.41
10539;BME280;5317;49.048;8.468;2022-07-06T12:04:25;112049.66;;;-142.21;39.19
10539;BME280;5317;49.048;8.468;2022-07-06T12:06:52;112049.66;;;-142.21;40.69
10539;BME280;5317;49.048;8.468;2022-07-06T12:09:22;112049.66;;;-142.21;38.85
10539;BME280;5317;49.048;8.468;2022-07-06T12:11:51;112049.66;;;-142.21;37.85
10539;BME280;5317;49.048;8.468;2022-07-06T12:14:20;112049.66;;;-142.21;39.39
10539;BME280;5317;49.048;8.468;2022-07-06T12:16:49;112049.66;;;-142.21;39.99
10539;BME280;5317;49.048;8.468;2022-07-06T12:19:17;112049.66;;;-142.21;37.53
10539;BME280;5317;49.048;8.468;2022-07-06T12:21:48;112049.66;;;-142.21;38.52
10539;BME280;5317;49.048;8.468;2022-07-06T12:24:20;112049.66;;;-142.21;36.76
10539;BME280;5317;49.048;8.468;2022-07-06T12:26:49;112049.66;;;-142.21;37.60
10539;BME280;5317;49.048;8.468;2022-07-06T12:29:19;112049.66;;;-142.21;37.84
10539;BME280;5317;49.048;8.468;2022-07-06T12:31:51;112049.66;;;-142.21;36.56
10539;BME280;5317;49.048;8.468;2022-07-06T12:34:21;112049.66;;;-142.21;37.50
10539;BME280;5317;49.048;8.468;2022-07-06T12:36:50;112049.66;;;-142.21;36.99
10539;BME280;5317;49.048;8.468;2022-07-06T12:39:21;112049.66;;;-142.21;38.03
10539;BME280;5317;49.048;8.468;2022-07-06T12:41:51;112049.66;;;-142.21;38.60
10539;BME280;5317;49.048;8.468;2022-07-06T12:44:23;112049.66;;;-142.21;38.75
10539;BME280;5317;49.048;8.468;2022-07-06T12:47:02;112049.66;;;-142.21;37.42
10539;BME280;5317;49.048;8.468;2022-07-06T12:49:30;112049.66;;;-142.21;36.53